sensor_id;sensor_type;location;lat;lon;timestamp;pressure;altitude;pressure_sealevel;temperature;humidity
37904;BME280;23738;50.422;18.758;2022-12-29T00:02:15;98483.33;;;2.90;73.59
37904;BME280;23738;50.422;18.758;2022-12-29T00:04:42;98476.47;;;2.89;73.56
37904;BME280;23738;50.422;18.758;2022-12-29T00:07:08;98475.17;;;2.89;73.48
37904;BME280;23738;50.422;18.758;2022-12-29T00:09:34;98462.80;;;2.91;73.40
37904;BME280;23738;50.422;18.758;2022-12-29T00:12:01;98451.25;;;2.94;73.43
37904;BME280;23738;50.422;18.758;2022-12-29T00:14:27;98454.69;;;2.98;73.55
37904;BME280;23738;50.422;18.758;2022-12-29T00:17:12;98447.54;;;3.04;73.48
37904;BME280;23738;50.422;18.758;2022-12-29T00:19:39;98447.77;;;3.11;73.36
37904;BME280;23738;50.422;18.758;2022-12-29T00:22:23;98450.88;;;3.15;73.38
37904;BME280;23738;50.422;18.758;2022-12-29T00:25:09;98447.96;;;3.18;73.28
37904;BME280;23738;50.422;18.758;2022-12-29T00:27:54;98451.22;;;3.20;72.94
37904;BME280;23738;50.422;18.758;2022-12-29T00:30:38;98455.66;;;3.23;73.33
37904;BME280;23738;50.422;18.758;2022-12-29T00:33:31;98445.06;;;3.25;73.04
37904;BME280;23738;50.422;18.758;2022-12-29T00:36:19;98434.28;;;3.24;73.06
37904;BME280;23738;50.422;18.758;2022-12-29T00:38:53;98433.31;;;3.25;73.14
37904;BME280;23738;50.422;18.758;2022-12-29T00:41:44;98431.04;;;3.26;73.11
37904;BME280;23738;50.422;18.758;2022-12-29T00:44:28;98429.25;;;3.26;73.17
37904;BME280;23738;50.422;18.758;2022-12-29T00:46:54;98424.52;;;3.30;73.07
37904;BME280;23738;50.422;18.758;2022-12-29T00:49:20;98424.85;;;3.31;73.14
37904;BME280;23738;50.422;18.758;2022-12-29T00:52:01;98429.73;;;3.30;72.96
37904;BME280;23738;50.422;18.758;2022-12-29T00:54:37;98433.84;;;3.32;73.02
37904;BME280;23738;50.422;18.758;2022-12-29T00:57:08;98429.92;;;3.32;73.02
37904;BME280;23738;50.422;18.758;2022-12-29T00:59:38;98421.61;;;3.33;73.00
37904;BME280;23738;50.422;18.758;2022-12-29T01:02:04;98429.44;;;3.37;73.11
37904;BME280;23738;50.422;18.758;2022-12-29T01:04:30;98426.23;;;3.43;73.11
37904;BME280;23738;50.422;18.758;2022-12-29T01:06:57;98422.98;;;3.49;73.02
37904;BME280;23738;50.422;18.758;2022-12-29T01:09:22;98426.56;;;3.52;72.73
37904;BME280;23738;50.422;18.758;2022-12-29T01:12:08;98436.38;;;3.54;72.92
37904;BME280;23738;50.422;18.758;2022-12-29T01:14:35;98437.35;;;3.53;72.88
37904;BME280;23738;50.422;18.758;2022-12-29T01:17:01;98453.02;;;3.53;72.75
37904;BME280;23738;50.422;18.758;2022-12-29T01:19:27;98460.38;;;3.54;72.65
37904;BME280;23738;50.422;18.758;2022-12-29T01:21:52;98470.00;;;3.53;72.52
37904;BME280;23738;50.422;18.758;2022-12-29T01:24:19;98472.12;;;3.54;72.63
37904;BME280;23738;50.422;18.758;2022-12-29T01:26:46;98471.00;;;3.56;72.57
37904;BME280;23738;50.422;18.758;2022-12-29T01:29:12;98470.19;;;3.60;72.69
37904;BME280;23738;50.422;18.758;2022-12-29T01:31:38;98473.62;;;3.60;72.68
37904;BME280;23738;50.422;18.758;2022-12-29T01:34:04;98464.14;;;3.59;72.54
37904;BME280;23738;50.422;18.758;2022-12-29T01:36:30;98462.20;;;3.61;72.51
37904;BME280;23738;50.422;18.758;2022-12-29T01:38:56;98456.00;;;3.62;72.57
37904;BME280;23738;50.422;18.758;2022-12-29T01:41:22;98450.78;;;3.62;72.59
37904;BME280;23738;50.422;18.758;2022-12-29T01:43:50;98451.45;;;3.64;72.47
37904;BME280;23738;50.422;18.758;2022-12-29T01:46:42;98438.72;;;3.65;72.45
37904;BME280;23738;50.422;18.758;2022-12-29T01:49:23;98441.33;;;3.69;72.48
37904;BME280;23738;50.422;18.758;2022-12-29T01:51:58;98440.36;;;3.70;72.46
37904;BME280;23738;50.422;18.758;2022-12-29T01:54:32;98421.28;;;3.74;72.47
37904;BME280;23738;50.422;18.758;2022-12-29T01:57:05;98421.43;;;3.76;72.37
37904;BME280;23738;50.422;18.758;2022-12-29T01:59:39;98391.74;;;3.81;72.37
37904;BME280;23738;50.422;18.758;2022-12-29T02:02:07;98381.61;;;3.87;72.16
37904;BME280;23738;50.422;18.758;2022-12-29T02:04:34;98378.35;;;3.93;72.25
37904;BME280;23738;50.422;18.758;2022-12-29T02:07:04;98389.16;;;3.98;72.18
37904;BME280;23738;50.422;18.758;2022-12-29T02:09:31;98390.46;;;4.02;72.22
37904;BME280;23738;50.422;18.758;2022-12-29T02:11:58;98397.66;;;4.04;72.13
37904;BME280;23738;50.422;18.758;2022-12-29T02:14:25;98398.63;;;4.03;72.13
37904;BME280;23738;50.422;18.758;2022-12-29T02:22:34;98406.96;;;4.02;72.14
37904;BME280;23738;50.422;18.758;2022-12-29T02:25:38;98409.27;;;4.05;72.03
37904;BME280;23738;50.422;18.758;2022-12-29T02:34:15;98409.44;;;4.12;71.91
37904;BME280;23738;50.422;18.758;2022-12-29T02:37:03;98402.56;;;4.11;72.04
37904;BME280;23738;50.422;18.758;2022-12-29T02:40:06;98406.64;;;4.09;72.09
37904;BME280;23738;50.422;18.758;2022-12-29T02:45:35;98392.25;;;4.01;72.00
37904;BME280;23738;50.422;18.758;2022-12-29T02:48:10;98389.80;;;3.96;71.98
37904;BME280;23738;50.422;18.758;2022-12-29T02:50:46;98383.44;;;3.90;71.89
37904;BME280;23738;50.422;18.758;2022-12-29T02:53:17;98376.38;;;3.78;71.89
37904;BME280;23738;50.422;18.758;2022-12-29T02:55:49;98389.12;;;3.81;71.90
37904;BME280;23738;50.422;18.758;2022-12-29T02:58:22;98380.63;;;3.79;71.81
37904;BME280;23738;50.422;18.758;2022-12-29T03:04:10;98364.30;;;3.81;71.76
37904;BME280;23738;50.422;18.758;2022-12-29T03:06:47;98372.63;;;3.81;71.79
37904;BME280;23738;50.422;18.758;2022-12-29T03:12:33;98363.97;;;3.80;71.75
37904;BME280;23738;50.422;18.758;2022-12-29T03:15:25;98360.70;;;3.78;71.79
37904;BME280;23738;50.422;18.758;2022-12-29T03:18:24;98354.80;;;3.76;71.73
37904;BME280;23738;50.422;18.758;2022-12-29T03:21:05;98347.45;;;3.72;71.76
37904;BME280;23738;50.422;18.758;2022-12-29T03:23:32;98364.11;;;3.71;71.71
37904;BME280;23738;50.422;18.758;2022-12-29T03:26:02;98356.92;;;3.65;71.71
37904;BME280;23738;50.422;18.758;2022-12-29T03:28:35;98353.16;;;3.63;71.70
37904;BME280;23738;50.422;18.758;2022-12-29T03:31:03;98353.48;;;3.64;71.73
37904;BME280;23738;50.422;18.758;2022-12-29T03:33:31;98351.69;;;3.65;71.71
37904;BME280;23738;50.422;18.758;2022-12-29T03:36:01;98337.66;;;3.66;71.60
37904;BME280;23738;50.422;18.758;2022-12-29T03:38:44;98345.98;;;3.65;71.69
37904;BME280;23738;50.422;18.758;2022-12-29T03:41:19;98339.61;;;3.64;71.67
37904;BME280;23738;50.422;18.758;2022-12-29T03:43:43;98345.14;;;3.61;71.66
37904;BME280;23738;50.422;18.758;2022-12-29T03:46:08;98344.66;;;3.57;71.67
37904;BME280;23738;50.422;18.758;2022-12-29T03:48:34;98340.56;;;3.55;71.66
37904;BME280;23738;50.422;18.758;2022-12-29T03:51:00;98336.80;;;3.53;71.62
37904;BME280;23738;50.422;18.758;2022-12-29T03:53:26;98339.75;;;3.50;71.52
37904;BME280;23738;50.422;18.758;2022-12-29T03:55:51;98342.02;;;3.49;71.58
37904;BME280;23738;50.422;18.758;2022-12-29T03:58:17;98333.37;;;3.49;71.61
37904;BME280;23738;50.422;18.758;2022-12-29T04:00:43;98339.41;;;3.49;71.59
37904;BME280;23738;50.422;18.758;2022-12-29T04:03:08;98345.13;;;3.49;71.55
37904;BME280;23738;50.422;18.758;2022-12-29T04:05:34;98344.63;;;3.49;71.57
37904;BME280;23738;50.422;18.758;2022-12-29T04:08:00;98349.52;;;3.48;71.60
37904;BME280;23738;50.422;18.758;2022-12-29T04:10:26;98345.27;;;3.47;71.60
37904;BME280;23738;50.422;18.758;2022-12-29T04:12:51;98341.02;;;3.46;71.58
37904;BME280;23738;50.422;18.758;2022-12-29T04:15:17;98331.22;;;3.44;71.53
37904;BME280;23738;50.422;18.758;2022-12-29T04:17:43;98335.13;;;3.44;71.59
37904;BME280;23738;50.422;18.758;2022-12-29T04:20:09;98320.62;;;3.41;71.58
37904;BME280;23738;50.422;18.758;2022-12-29T04:23:05;98317.02;;;3.38;71.57
37904;BME280;23738;50.422;18.758;2022-12-29T04:25:30;98325.67;;;3.35;71.64
37904;BME280;23738;50.422;18.758;2022-12-29T04:27:56;98320.27;;;3.32;71.67
37904;BME280;23738;50.422;18.758;2022-12-29T04:30:22;98328.28;;;3.35;71.70
37904;BME280;23738;50.422;18.758;2022-12-29T04:32:48;98334.47;;;3.38;71.76
37904;BME280;23738;50.422;18.758;2022-12-29T04:35:14;98329.28;;;3.42;71.76
37904;BME280;23738;50.422;18.758;2022-12-29T04:37:39;98320.77;;;3.44;71.78
37904;BME280;23738;50.422;18.758;2022-12-29T04:40:06;98318.02;;;3.41;71.69
37904;BME280;23738;50.422;18.758;2022-12-29T04:42:32;98310.81;;;3.39;71.70
37904;BME280;23738;50.422;18.758;2022-12-29T04:44:58;98312.77;;;3.37;71.72
37904;BME280;23738;50.422;18.758;2022-12-29T04:47:24;98309.34;;;3.33;71.74
37904;BME280;23738;50.422;18.758;2022-12-29T04:49:50;98313.22;;;3.29;71.67
37904;BME280;23738;50.422;18.758;2022-12-29T04:52:15;98317.29;;;3.27;71.73
37904;BME280;23738;50.422;18.758;2022-12-29T04:54:41;98326.28;;;3.25;71.75
37904;BME280;23738;50.422;18.758;2022-12-29T04:57:07;98328.55;;;3.24;71.75
37904;BME280;23738;50.422;18.758;2022-12-29T04:59:33;98332.47;;;3.24;71.78
37904;BME280;23738;50.422;18.758;2022-12-29T05:01:58;98329.53;;;3.19;71.80
37904;BME280;23738;50.422;18.758;2022-12-29T05:04:24;98325.77;;;3.17;71.75
37904;BME280;23738;50.422;18.758;2022-12-29T05:06:50;98339.30;;;3.17;71.81
37904;BME280;23738;50.422;18.758;2022-12-29T05:09:16;98336.88;;;3.19;71.85
37904;BME280;23738;50.422;18.758;2022-12-29T05:11:41;98326.25;;;3.21;71.87
37904;BME280;23738;50.422;18.758;2022-12-29T05:14:07;98326.58;;;3.18;71.79
37904;BME280;23738;50.422;18.758;2022-12-29T05:16:33;98323.94;;;3.14;71.88
37904;BME280;23738;50.422;18.758;2022-12-29T05:18:59;98328.01;;;3.12;71.88
37904;BME280;23738;50.422;18.758;2022-12-29T05:21:25;98329.16;;;3.10;71.86
37904;BME280;23738;50.422;18.758;2022-12-29T05:23:50;98324.55;;;3.03;71.85
37904;BME280;23738;50.422;18.758;2022-12-29T05:26:16;98312.50;;;3.02;71.88
37904;BME280;23738;50.422;18.758;2022-12-29T05:28:42;98312.12;;;2.97;71.91
37904;BME280;23738;50.422;18.758;2022-12-29T05:31:07;98303.63;;;2.91;71.80
37904;BME280;23738;50.422;18.758;2022-12-29T05:33:33;98298.89;;;2.87;71.91
37904;BME280;23738;50.422;18.758;2022-12-29T05:36:07;98305.23;;;2.88;72.00
37904;BME280;23738;50.422;18.758;2022-12-29T05:38:34;98310.48;;;2.92;72.01
37904;BME280;23738;50.422;18.758;2022-12-29T05:41:00;98297.93;;;2.96;72.09
37904;BME280;23738;50.422;18.758;2022-12-29T05:43:26;98297.14;;;2.99;72.09
37904;BME280;23738;50.422;18.758;2022-12-29T05:45:53;98283.28;;;2.99;72.11
37904;BME280;23738;50.422;18.758;2022-12-29T05:48:19;98279.20;;;3.00;72.15
37904;BME280;23738;50.422;18.758;2022-12-29T05:50:49;98275.14;;;3.02;72.22
37904;BME280;23738;50.422;18.758;2022-12-29T05:53:15;98265.83;;;3.03;72.23
37904;BME280;23738;50.422;18.758;2022-12-29T05:55:42;98276.59;;;3.04;72.27
37904;BME280;23738;50.422;18.758;2022-12-29T05:58:08;98268.80;;;3.08;72.31
37904;BME280;23738;50.422;18.758;2022-12-29T06:00:34;98258.02;;;3.12;72.37
37904;BME280;23738;50.422;18.758;2022-12-29T06:03:00;98279.59;;;3.18;72.50
37904;BME280;23738;50.422;18.758;2022-12-29T06:05:26;98295.92;;;3.28;72.53
37904;BME280;23738;50.422;18.758;2022-12-29T06:07:52;98304.78;;;3.35;72.50
37904;BME280;23738;50.422;18.758;2022-12-29T06:10:17;98308.69;;;3.39;72.56
37904;BME280;23738;50.422;18.758;2022-12-29T06:12:43;98296.97;;;3.43;72.55
37904;BME280;23738;50.422;18.758;2022-12-29T06:15:10;98290.25;;;3.44;72.50
37904;BME280;23738;50.422;18.758;2022-12-29T06:17:35;98284.70;;;3.43;72.46
37904;BME280;23738;50.422;18.758;2022-12-29T06:20:02;98285.70;;;3.42;72.49
37904;BME280;23738;50.422;18.758;2022-12-29T06:22:28;98275.41;;;3.41;72.52
37904;BME280;23738;50.422;18.758;2022-12-29T06:24:54;98272.63;;;3.38;72.49
37904;BME280;23738;50.422;18.758;2022-12-29T06:27:19;98272.44;;;3.36;72.46
37904;BME280;23738;50.422;18.758;2022-12-29T06:29:45;98266.41;;;3.31;72.48
37904;BME280;23738;50.422;18.758;2022-12-29T06:32:11;98270.97;;;3.29;72.50
37904;BME280;23738;50.422;18.758;2022-12-29T06:34:37;98277.01;;;3.30;72.56
37904;BME280;23738;50.422;18.758;2022-12-29T06:37:02;98273.09;;;3.30;72.56
37904;BME280;23738;50.422;18.758;2022-12-29T06:39:28;98285.84;;;3.33;72.60
37904;BME280;23738;50.422;18.758;2022-12-29T06:41:54;98281.58;;;3.36;72.66
37904;BME280;23738;50.422;18.758;2022-12-29T06:44:21;98283.73;;;3.40;72.70
37904;BME280;23738;50.422;18.758;2022-12-29T06:46:48;98281.45;;;3.41;72.73
37904;BME280;23738;50.422;18.758;2022-12-29T06:49:14;98269.38;;;3.40;72.63
37904;BME280;23738;50.422;18.758;2022-12-29T06:51:40;98274.23;;;3.35;72.62
37904;BME280;23738;50.422;18.758;2022-12-29T06:54:06;98264.62;;;3.32;72.61
37904;BME280;23738;50.422;18.758;2022-12-29T06:56:31;98259.86;;;3.27;72.61
37904;BME280;23738;50.422;18.758;2022-12-29T06:58:57;98267.54;;;3.25;72.67
37904;BME280;23738;50.422;18.758;2022-12-29T07:01:25;98271.77;;;3.22;72.65
37904;BME280;23738;50.422;18.758;2022-12-29T07:03:51;98276.31;;;3.20;72.70
37904;BME280;23738;50.422;18.758;2022-12-29T07:06:17;98278.78;;;3.21;72.74
37904;BME280;23738;50.422;18.758;2022-12-29T07:08:42;98271.13;;;3.24;72.78
37904;BME280;23738;50.422;18.758;2022-12-29T07:11:08;98274.88;;;3.29;72.82
37904;BME280;23738;50.422;18.758;2022-12-29T07:13:34;98282.23;;;3.30;72.80
37904;BME280;23738;50.422;18.758;2022-12-29T07:16:06;98283.38;;;3.31;72.86
37904;BME280;23738;50.422;18.758;2022-12-29T07:18:35;98286.33;;;3.32;72.84
37904;BME280;23738;50.422;18.758;2022-12-29T07:21:01;98291.70;;;3.31;72.88
37904;BME280;23738;50.422;18.758;2022-12-29T07:23:27;98302.63;;;3.30;72.83
37904;BME280;23738;50.422;18.758;2022-12-29T07:26:04;98298.53;;;3.28;72.83
37904;BME280;23738;50.422;18.758;2022-12-29T07:28:31;98301.96;;;3.28;72.85
37904;BME280;23738;50.422;18.758;2022-12-29T07:30:59;98302.45;;;3.28;72.93
37904;BME280;23738;50.422;18.758;2022-12-29T07:33:30;98309.64;;;3.30;72.96
37904;BME280;23738;50.422;18.758;2022-12-29T07:35:58;98303.63;;;3.37;73.07
37904;BME280;23738;50.422;18.758;2022-12-29T07:38:24;98285.55;;;3.48;73.11
37904;BME280;23738;50.422;18.758;2022-12-29T07:40:50;98268.42;;;3.58;73.15
37904;BME280;23738;50.422;18.758;2022-12-29T07:43:16;98275.59;;;3.68;73.14
37904;BME280;23738;50.422;18.758;2022-12-29T07:45:42;98272.69;;;3.75;73.17
37904;BME280;23738;50.422;18.758;2022-12-29T07:48:08;98279.04;;;3.84;73.19
37904;BME280;23738;50.422;18.758;2022-12-29T07:50:35;98289.16;;;3.92;73.18
37904;BME280;23738;50.422;18.758;2022-12-29T07:53:01;98288.19;;;4.01;73.16
37904;BME280;23738;50.422;18.758;2022-12-29T07:55:28;98287.86;;;4.08;73.24
37904;BME280;23738;50.422;18.758;2022-12-29T07:57:55;98281.65;;;4.17;73.25
37904;BME280;23738;50.422;18.758;2022-12-29T08:00:21;98280.02;;;4.28;73.23
37904;BME280;23738;50.422;18.758;2022-12-29T08:02:47;98283.58;;;4.39;73.21
37904;BME280;23738;50.422;18.758;2022-12-29T08:05:13;98281.27;;;4.48;73.09
37904;BME280;23738;50.422;18.758;2022-12-29T08:07:42;98271.77;;;4.55;73.17
37904;BME280;23738;50.422;18.758;2022-12-29T08:10:09;98263.60;;;4.63;73.19
37904;BME280;23738;50.422;18.758;2022-12-29T08:12:37;98269.59;;;4.71;73.05
37904;BME280;23738;50.422;18.758;2022-12-29T08:15:05;98277.13;;;4.78;73.14
37904;BME280;23738;50.422;18.758;2022-12-29T08:17:31;98287.86;;;4.87;73.06
37904;BME280;23738;50.422;18.758;2022-12-29T08:19:57;98277.53;;;4.98;73.01
37904;BME280;23738;50.422;18.758;2022-12-29T08:22:23;98275.69;;;5.07;72.81
37904;BME280;23738;50.422;18.758;2022-12-29T08:24:49;98277.45;;;5.14;72.69
37904;BME280;23738;50.422;18.758;2022-12-29T08:27:15;98284.62;;;5.20;72.67
37904;BME280;23738;50.422;18.758;2022-12-29T08:29:41;98286.37;;;5.28;72.78
37904;BME280;23738;50.422;18.758;2022-12-29T08:32:07;98286.53;;;5.34;72.70
37904;BME280;23738;50.422;18.758;2022-12-29T08:34:33;98286.83;;;5.39;72.47
37904;BME280;23738;50.422;18.758;2022-12-29T08:36:58;98284.16;;;5.44;72.26
37904;BME280;23738;50.422;18.758;2022-12-29T08:39:24;98291.68;;;5.51;71.87
37904;BME280;23738;50.422;18.758;2022-12-29T08:41:50;98289.19;;;5.57;72.25
37904;BME280;23738;50.422;18.758;2022-12-29T08:44:16;98294.50;;;5.68;72.23
37904;BME280;23738;50.422;18.758;2022-12-29T08:46:42;98279.70;;;5.75;72.20
37904;BME280;23738;50.422;18.758;2022-12-29T08:49:07;98287.02;;;5.84;72.18
37904;BME280;23738;50.422;18.758;2022-12-29T08:51:33;98272.44;;;5.89;71.22
37904;BME280;23738;50.422;18.758;2022-12-29T08:53:59;98283.85;;;5.96;71.66
37904;BME280;23738;50.422;18.758;2022-12-29T08:56:26;98285.10;;;6.04;71.73
37904;BME280;23738;50.422;18.758;2022-12-29T08:58:52;98281.09;;;6.12;71.49
37904;BME280;23738;50.422;18.758;2022-12-29T09:01:20;98290.53;;;6.22;71.45
37904;BME280;23738;50.422;18.758;2022-12-29T09:03:47;98281.28;;;6.30;70.97
37904;BME280;23738;50.422;18.758;2022-12-29T09:06:15;98298.20;;;6.42;71.37
37904;BME280;23738;50.422;18.758;2022-12-29T09:08:42;98295.48;;;6.54;71.16
37904;BME280;23738;50.422;18.758;2022-12-29T09:11:16;98296.97;;;6.67;71.26
37904;BME280;23738;50.422;18.758;2022-12-29T09:13:47;98316.23;;;6.78;71.24
37904;BME280;23738;50.422;18.758;2022-12-29T09:16:14;98313.48;;;6.86;71.05
37904;BME280;23738;50.422;18.758;2022-12-29T09:18:40;98321.91;;;6.97;70.94
37904;BME280;23738;50.422;18.758;2022-12-29T09:21:07;98305.80;;;7.00;70.30
37904;BME280;23738;50.422;18.758;2022-12-29T09:23:33;98311.38;;;7.01;70.35
37904;BME280;23738;50.422;18.758;2022-12-29T09:25:59;98293.31;;;7.02;70.13
37904;BME280;23738;50.422;18.758;2022-12-29T09:31:39;98292.92;;;7.05;70.27
37904;BME280;23738;50.422;18.758;2022-12-29T09:34:05;98286.50;;;7.07;70.55
37904;BME280;23738;50.422;18.758;2022-12-29T09:36:31;98288.64;;;7.08;70.32
37904;BME280;23738;50.422;18.758;2022-12-29T09:38:57;98281.89;;;7.09;70.48
37904;BME280;23738;50.422;18.758;2022-12-29T09:41:42;98280.59;;;7.20;70.58
37904;BME280;23738;50.422;18.758;2022-12-29T09:44:27;98285.37;;;7.31;70.51
37904;BME280;23738;50.422;18.758;2022-12-29T09:46:58;98288.33;;;7.43;70.29
37904;BME280;23738;50.422;18.758;2022-12-29T09:49:29;98282.85;;;7.48;69.59
37904;BME280;23738;50.422;18.758;2022-12-29T09:57:25;98283.84;;;7.47;69.66
37904;BME280;23738;50.422;18.758;2022-12-29T10:00:03;98291.55;;;7.49;69.75
37904;BME280;23738;50.422;18.758;2022-12-29T10:02:54;98290.73;;;7.48;69.59
37904;BME280;23738;50.422;18.758;2022-12-29T10:05:40;98292.73;;;7.46;69.30
37904;BME280;23738;50.422;18.758;2022-12-29T10:16:32;98266.78;;;7.58;69.11
37904;BME280;23738;50.422;18.758;2022-12-29T10:19:16;98254.50;;;7.54;69.20
37904;BME280;23738;50.422;18.758;2022-12-29T10:24:50;98255.12;;;7.46;67.84
37904;BME280;23738;50.422;18.758;2022-12-29T10:27:19;98251.53;;;7.43;68.77
37904;BME280;23738;50.422;18.758;2022-12-29T10:29:55;98249.23;;;7.44;68.56
37904;BME280;23738;50.422;18.758;2022-12-29T10:35:12;98233.78;;;7.45;68.79
37904;BME280;23738;50.422;18.758;2022-12-29T10:43:27;98241.12;;;7.49;68.59
37904;BME280;23738;50.422;18.758;2022-12-29T10:46:00;98234.55;;;7.49;68.68
37904;BME280;23738;50.422;18.758;2022-12-29T10:48:32;98243.03;;;7.51;68.75
37904;BME280;23738;50.422;18.758;2022-12-29T10:51:02;98239.91;;;7.52;68.75
37904;BME280;23738;50.422;18.758;2022-12-29T10:53:47;98232.34;;;7.53;68.60
37904;BME280;23738;50.422;18.758;2022-12-29T10:59:25;98230.84;;;7.54;68.73
37904;BME280;23738;50.422;18.758;2022-12-29T11:04:51;98226.91;;;7.54;68.48
37904;BME280;23738;50.422;18.758;2022-12-29T11:07:29;98225.91;;;7.55;68.54
37904;BME280;23738;50.422;18.758;2022-12-29T11:13:03;98233.40;;;7.58;68.56
37904;BME280;23738;50.422;18.758;2022-12-29T11:15:45;98229.77;;;7.59;68.62
37904;BME280;23738;50.422;18.758;2022-12-29T11:18:21;98230.72;;;7.62;68.78
37904;BME280;23738;50.422;18.758;2022-12-29T11:20:58;98230.86;;;7.65;68.54
37904;BME280;23738;50.422;18.758;2022-12-29T11:23:34;98240.98;;;7.68;68.39
37904;BME280;23738;50.422;18.758;2022-12-29T11:28:45;98236.86;;;7.69;68.25
37904;BME280;23738;50.422;18.758;2022-12-29T11:31:17;98233.41;;;7.69;68.32
37904;BME280;23738;50.422;18.758;2022-12-29T11:33:43;98237.03;;;7.68;67.99
37904;BME280;23738;50.422;18.758;2022-12-29T11:36:21;98218.31;;;7.67;68.06
37904;BME280;23738;50.422;18.758;2022-12-29T11:38:53;98224.08;;;7.66;68.07
37904;BME280;23738;50.422;18.758;2022-12-29T11:43:51;98226.70;;;7.66;67.64
37904;BME280;23738;50.422;18.758;2022-12-29T11:46:29;98238.43;;;7.64;67.72
37904;BME280;23738;50.422;18.758;2022-12-29T11:48:53;98238.75;;;7.65;67.85
37904;BME280;23738;50.422;18.758;2022-12-29T11:51:23;98233.67;;;7.63;67.88
37904;BME280;23738;50.422;18.758;2022-12-29T11:53:59;98231.54;;;7.63;67.87
37904;BME280;23738;50.422;18.758;2022-12-29T11:56:34;98236.62;;;7.64;67.88
37904;BME280;23738;50.422;18.758;2022-12-29T12:01:58;98228.02;;;7.66;67.78
37904;BME280;23738;50.422;18.758;2022-12-29T12:04:30;98229.05;;;7.65;67.85
37904;BME280;23738;50.422;18.758;2022-12-29T12:07:11;98224.39;;;7.67;67.86
37904;BME280;23738;50.422;18.758;2022-12-29T12:09:52;98226.52;;;7.68;67.69
37904;BME280;23738;50.422;18.758;2022-12-29T12:12:33;98225.52;;;7.69;67.86
37904;BME280;23738;50.422;18.758;2022-12-29T12:15:08;98221.77;;;7.67;67.87
37904;BME280;23738;50.422;18.758;2022-12-29T12:20:26;98210.64;;;7.65;67.95
37904;BME280;23738;50.422;18.758;2022-12-29T12:26:15;98206.61;;;7.59;67.94
37904;BME280;23738;50.422;18.758;2022-12-29T12:28:51;98195.67;;;7.55;68.04
37904;BME280;23738;50.422;18.758;2022-12-29T12:31:27;98195.36;;;7.54;68.15
37904;BME280;23738;50.422;18.758;2022-12-29T12:34:23;98200.63;;;7.54;68.18
37904;BME280;23738;50.422;18.758;2022-12-29T12:42:57;98203.75;;;7.54;68.33
37904;BME280;23738;50.422;18.758;2022-12-29T12:46:06;98205.88;;;7.54;68.43
37904;BME280;23738;50.422;18.758;2022-12-29T12:51:48;98191.42;;;7.54;68.55
37904;BME280;23738;50.422;18.758;2022-12-29T12:57:41;98181.77;;;7.61;68.59
37904;BME280;23738;50.422;18.758;2022-12-29T13:00:24;98182.64;;;7.68;68.65
37904;BME280;23738;50.422;18.758;2022-12-29T13:03:03;98187.85;;;7.73;68.75
37904;BME280;23738;50.422;18.758;2022-12-29T13:06:25;98182.69;;;7.75;68.53
37904;BME280;23738;50.422;18.758;2022-12-29T13:08:44;98176.75;;;7.77;68.60
37904;BME280;23738;50.422;18.758;2022-12-29T13:17:32;98185.50;;;7.84;68.54
37904;BME280;23738;50.422;18.758;2022-12-29T13:20:27;98190.08;;;7.86;68.53
37904;BME280;23738;50.422;18.758;2022-12-29T13:23:27;98186.63;;;7.86;68.30
37904;BME280;23738;50.422;18.758;2022-12-29T13:26:20;98192.84;;;7.89;68.56
37904;BME280;23738;50.422;18.758;2022-12-29T13:29:35;98196.70;;;7.93;68.45
37904;BME280;23738;50.422;18.758;2022-12-29T13:35:18;98200.91;;;7.98;68.45
37904;BME280;23738;50.422;18.758;2022-12-29T13:38:07;98203.01;;;7.98;68.26
37904;BME280;23738;50.422;18.758;2022-12-29T13:40:45;98204.95;;;8.00;68.06
37904;BME280;23738;50.422;18.758;2022-12-29T13:43:13;98198.88;;;8.00;68.17
37904;BME280;23738;50.422;18.758;2022-12-29T13:45:42;98200.19;;;8.00;68.24
37904;BME280;23738;50.422;18.758;2022-12-29T13:48:14;98206.77;;;8.00;68.23
37904;BME280;23738;50.422;18.758;2022-12-29T13:50:53;98200.19;;;8.00;68.25
37904;BME280;23738;50.422;18.758;2022-12-29T13:56:31;98206.27;;;8.00;68.39
37904;BME280;23738;50.422;18.758;2022-12-29T14:02:31;98198.14;;;8.06;68.07
37904;BME280;23738;50.422;18.758;2022-12-29T14:08:04;98200.23;;;8.06;68.21
37904;BME280;23738;50.422;18.758;2022-12-29T14:10:36;98194.56;;;8.03;68.26
37904;BME280;23738;50.422;18.758;2022-12-29T14:13:21;98198.88;;;8.00;68.18
37904;BME280;23738;50.422;18.758;2022-12-29T14:15:56;98205.22;;;7.95;68.12
37904;BME280;23738;50.422;18.758;2022-12-29T14:18:25;98203.78;;;7.92;68.24
37904;BME280;23738;50.422;18.758;2022-12-29T14:23:43;98201.59;;;7.85;68.27
37904;BME280;23738;50.422;18.758;2022-12-29T14:31:52;98200.73;;;7.78;68.42
37904;BME280;23738;50.422;18.758;2022-12-29T14:39:40;98191.39;;;7.76;68.33
37904;BME280;23738;50.422;18.758;2022-12-29T14:42:10;98194.73;;;7.74;68.35
37904;BME280;23738;50.422;18.758;2022-12-29T14:44:53;98189.03;;;7.70;68.34
37904;BME280;23738;50.422;18.758;2022-12-29T14:47:36;98198.10;;;7.67;68.13
37904;BME280;23738;50.422;18.758;2022-12-29T14:52:58;98208.02;;;7.65;68.19
37904;BME280;23738;50.422;18.758;2022-12-29T14:55:43;98207.38;;;7.63;68.40
37904;BME280;23738;50.422;18.758;2022-12-29T14:58:35;98206.06;;;7.63;68.35
37904;BME280;23738;50.422;18.758;2022-12-29T15:00:59;98198.60;;;7.67;68.36
37904;BME280;23738;50.422;18.758;2022-12-29T15:03:31;98195.61;;;7.70;68.31
37904;BME280;23738;50.422;18.758;2022-12-29T15:06:09;98196.92;;;7.70;68.21
37904;BME280;23738;50.422;18.758;2022-12-29T15:11:16;98198.55;;;7.71;68.18
37904;BME280;23738;50.422;18.758;2022-12-29T15:13:44;98200.36;;;7.71;68.17
37904;BME280;23738;50.422;18.758;2022-12-29T15:16:26;98198.05;;;7.72;67.75
37904;BME280;23738;50.422;18.758;2022-12-29T15:19:01;98200.68;;;7.72;68.12
37904;BME280;23738;50.422;18.758;2022-12-29T15:21:30;98201.50;;;7.72;67.90
37904;BME280;23738;50.422;18.758;2022-12-29T15:23:57;98200.09;;;7.76;67.97
37904;BME280;23738;50.422;18.758;2022-12-29T15:26:38;98203.49;;;7.81;67.98